sensor_id;sensor_type;location;lat;lon;timestamp;P1;durP1;ratioP1;P2;durP2;ratioP2
20283;SDS011;10301;50.832;4.080;2023-12-29T00:00:41;10.70;;;2.03;;
20283;SDS011;10301;50.832;4.080;2023-12-29T00:03:06;13.43;;;2.80;;
20283;SDS011;10301;50.832;4.080;2023-12-29T00:05:32;6.47;;;1.80;;
20283;SDS011;10301;50.832;4.080;2023-12-29T00:07:57;13.40;;;2.28;;
20283;SDS011;10301;50.832;4.080;2023-12-29T00:10:23;12.55;;;2.30;;
20283;SDS011;10301;50.832;4.080;2023-12-29T00:12:49;12.55;;;2.38;;
20283;SDS011;10301;50.832;4.080;2023-12-29T00:15:18;14.60;;;2.65;;
20283;SDS011;10301;50.832;4.080;2023-12-29T00:17:43;11.80;;;2.40;;
20283;SDS011;10301;50.832;4.080;2023-12-29T00:20:10;9.48;;;1.77;;
20283;SDS011;10301;50.832;4.080;2023-12-29T00:22:36;13.27;;;2.00;;
20283;SDS011;10301;50.832;4.080;2023-12-29T00:25:02;11.13;;;2.30;;
20283;SDS011;10301;50.832;4.080;2023-12-29T00:27:28;9.07;;;2.00;;
20283;SDS011;10301;50.832;4.080;2023-12-29T00:29:53;8.80;;;2.10;;
20283;SDS011;10301;50.832;4.080;2023-12-29T00:32:19;12.15;;;2.00;;
20283;SDS011;10301;50.832;4.080;2023-12-29T00:34:45;14.20;;;2.42;;
20283;SDS011;10301;50.832;4.080;2023-12-29T00:37:11;13.95;;;1.88;;
20283;SDS011;10301;50.832;4.080;2023-12-29T00:39:36;12.25;;;2.25;;
20283;SDS011;10301;50.832;4.080;2023-12-29T00:42:05;13.98;;;2.10;;
20283;SDS011;10301;50.832;4.080;2023-12-29T00:44:31;10.90;;;1.98;;
20283;SDS011;10301;50.832;4.080;2023-12-29T00:46:57;14.90;;;2.17;;
20283;SDS011;10301;50.832;4.080;2023-12-29T00:49:23;13.85;;;2.20;;
20283;SDS011;10301;50.832;4.080;2023-12-29T00:51:49;7.93;;;2.13;;
20283;SDS011;10301;50.832;4.080;2023-12-29T00:54:15;13.65;;;2.30;;
20283;SDS011;10301;50.832;4.080;2023-12-29T00:56:41;12.75;;;2.47;;
20283;SDS011;10301;50.832;4.080;2023-12-29T00:59:06;11.82;;;1.80;;
20283;SDS011;10301;50.832;4.080;2023-12-29T01:01:35;8.80;;;2.50;;
20283;SDS011;10301;50.832;4.080;2023-12-29T01:04:01;9.40;;;2.28;;
20283;SDS011;10301;50.832;4.080;2023-12-29T01:06:27;15.32;;;2.33;;
20283;SDS011;10301;50.832;4.080;2023-12-29T01:08:53;15.02;;;2.75;;
20283;SDS011;10301;50.832;4.080;2023-12-29T01:11:18;9.27;;;2.40;;
20283;SDS011;10301;50.832;4.080;2023-12-29T01:13:44;5.97;;;1.48;;
20283;SDS011;10301;50.832;4.080;2023-12-29T01:16:10;11.02;;;1.90;;
20283;SDS011;10301;50.832;4.080;2023-12-29T01:18:35;13.38;;;2.10;;
20283;SDS011;10301;50.832;4.080;2023-12-29T01:21:01;13.10;;;2.35;;
20283;SDS011;10301;50.832;4.080;2023-12-29T01:23:27;14.13;;;2.33;;
20283;SDS011;10301;50.832;4.080;2023-12-29T01:25:52;12.93;;;1.98;;
20283;SDS011;10301;50.832;4.080;2023-12-29T01:28:18;9.65;;;1.70;;
20283;SDS011;10301;50.832;4.080;2023-12-29T01:30:43;6.65;;;1.90;;
20283;SDS011;10301;50.832;4.080;2023-12-29T01:33:09;9.05;;;1.95;;
20283;SDS011;10301;50.832;4.080;2023-12-29T01:35:35;9.82;;;1.83;;
20283;SDS011;10301;50.832;4.080;2023-12-29T01:38:02;10.63;;;2.28;;
20283;SDS011;10301;50.832;4.080;2023-12-29T01:40:28;5.68;;;1.55;;
20283;SDS011;10301;50.832;4.080;2023-12-29T01:42:53;10.52;;;2.50;;
20283;SDS011;10301;50.832;4.080;2023-12-29T01:45:22;11.95;;;2.05;;
20283;SDS011;10301;50.832;4.080;2023-12-29T01:47:49;14.82;;;2.38;;
20283;SDS011;10301;50.832;4.080;2023-12-29T01:50:19;10.05;;;1.90;;
20283;SDS011;10301;50.832;4.080;2023-12-29T01:52:46;11.25;;;2.03;;
20283;SDS011;10301;50.832;4.080;2023-12-29T01:55:15;7.90;;;1.60;;
20283;SDS011;10301;50.832;4.080;2023-12-29T01:57:43;9.73;;;2.60;;
20283;SDS011;10301;50.832;4.080;2023-12-29T02:00:11;7.40;;;2.03;;
20283;SDS011;10301;50.832;4.080;2023-12-29T02:02:37;12.85;;;2.20;;
20283;SDS011;10301;50.832;4.080;2023-12-29T02:05:04;10.25;;;1.83;;
20283;SDS011;10301;50.832;4.080;2023-12-29T02:07:30;7.65;;;1.80;;
20283;SDS011;10301;50.832;4.080;2023-12-29T02:09:57;12.05;;;2.20;;
20283;SDS011;10301;50.832;4.080;2023-12-29T02:12:24;11.35;;;1.58;;
20283;SDS011;10301;50.832;4.080;2023-12-29T02:14:50;9.10;;;2.33;;
20283;SDS011;10301;50.832;4.080;2023-12-29T02:17:21;12.20;;;2.17;;
20283;SDS011;10301;50.832;4.080;2023-12-29T02:19:51;12.50;;;2.17;;
20283;SDS011;10301;50.832;4.080;2023-12-29T02:22:17;10.23;;;2.25;;
20283;SDS011;10301;50.832;4.080;2023-12-29T02:24:47;12.45;;;2.13;;
20283;SDS011;10301;50.832;4.080;2023-12-29T02:27:28;13.23;;;2.10;;
20283;SDS011;10301;50.832;4.080;2023-12-29T02:30:09;12.23;;;2.00;;
20283;SDS011;10301;50.832;4.080;2023-12-29T02:32:40;10.35;;;2.63;;
20283;SDS011;10301;50.832;4.080;2023-12-29T02:35:12;10.65;;;2.28;;
20283;SDS011;10301;50.832;4.080;2023-12-29T02:37:42;7.40;;;2.25;;
20283;SDS011;10301;50.832;4.080;2023-12-29T02:40:08;10.85;;;2.28;;
20283;SDS011;10301;50.832;4.080;2023-12-29T02:42:34;9.57;;;1.92;;
20283;SDS011;10301;50.832;4.080;2023-12-29T02:45:00;11.30;;;2.35;;
20283;SDS011;10301;50.832;4.080;2023-12-29T02:47:26;15.05;;;2.20;;
20283;SDS011;10301;50.832;4.080;2023-12-29T02:49:52;15.65;;;2.65;;
20283;SDS011;10301;50.832;4.080;2023-12-29T02:52:17;7.57;;;1.95;;
20283;SDS011;10301;50.832;4.080;2023-12-29T02:54:43;10.18;;;2.08;;
20283;SDS011;10301;50.832;4.080;2023-12-29T02:57:09;11.48;;;2.10;;
20283;SDS011;10301;50.832;4.080;2023-12-29T02:59:34;10.52;;;1.73;;
20283;SDS011;10301;50.832;4.080;2023-12-29T03:02:02;17.25;;;2.38;;
20283;SDS011;10301;50.832;4.080;2023-12-29T03:04:28;11.40;;;1.90;;
20283;SDS011;10301;50.832;4.080;2023-12-29T03:06:54;12.68;;;2.25;;
20283;SDS011;10301;50.832;4.080;2023-12-29T03:09:20;15.05;;;2.33;;
20283;SDS011;10301;50.832;4.080;2023-12-29T03:11:45;12.50;;;2.28;;
20283;SDS011;10301;50.832;4.080;2023-12-29T03:14:11;14.27;;;3.05;;
20283;SDS011;10301;50.832;4.080;2023-12-29T03:16:37;12.82;;;2.00;;
20283;SDS011;10301;50.832;4.080;2023-12-29T03:19:02;11.25;;;2.22;;
20283;SDS011;10301;50.832;4.080;2023-12-29T03:21:28;11.07;;;2.17;;
20283;SDS011;10301;50.832;4.080;2023-12-29T03:23:54;11.32;;;2.28;;
20283;SDS011;10301;50.832;4.080;2023-12-29T03:26:19;12.38;;;1.80;;
20283;SDS011;10301;50.832;4.080;2023-12-29T03:28:45;11.45;;;2.25;;
20283;SDS011;10301;50.832;4.080;2023-12-29T03:31:10;10.52;;;1.83;;
20283;SDS011;10301;50.832;4.080;2023-12-29T03:33:36;14.75;;;2.28;;
20283;SDS011;10301;50.832;4.080;2023-12-29T03:36:02;13.00;;;2.28;;
20283;SDS011;10301;50.832;4.080;2023-12-29T03:38:28;10.13;;;2.45;;
20283;SDS011;10301;50.832;4.080;2023-12-29T03:40:53;10.82;;;2.45;;
20283;SDS011;10301;50.832;4.080;2023-12-29T03:43:22;11.03;;;2.10;;
20283;SDS011;10301;50.832;4.080;2023-12-29T03:45:48;10.23;;;2.17;;
20283;SDS011;10301;50.832;4.080;2023-12-29T03:48:13;11.10;;;1.93;;
20283;SDS011;10301;50.832;4.080;2023-12-29T03:50:39;9.47;;;2.27;;
20283;SDS011;10301;50.832;4.080;2023-12-29T03:53:04;15.30;;;2.40;;
20283;SDS011;10301;50.832;4.080;2023-12-29T03:55:30;11.05;;;2.35;;
20283;SDS011;10301;50.832;4.080;2023-12-29T03:57:56;8.55;;;3.28;;
20283;SDS011;10301;50.832;4.080;2023-12-29T04:00:21;9.82;;;1.70;;
20283;SDS011;10301;50.832;4.080;2023-12-29T04:02:47;9.23;;;2.33;;
20283;SDS011;10301;50.832;4.080;2023-12-29T04:05:13;12.83;;;2.23;;
20283;SDS011;10301;50.832;4.080;2023-12-29T04:07:39;10.90;;;2.22;;
20283;SDS011;10301;50.832;4.080;2023-12-29T04:10:05;8.63;;;2.03;;
20283;SDS011;10301;50.832;4.080;2023-12-29T04:12:32;8.50;;;1.83;;
20283;SDS011;10301;50.832;4.080;2023-12-29T04:14:58;12.20;;;2.37;;
20283;SDS011;10301;50.832;4.080;2023-12-29T04:17:23;9.80;;;2.60;;
20283;SDS011;10301;50.832;4.080;2023-12-29T04:19:49;10.95;;;1.95;;
20283;SDS011;10301;50.832;4.080;2023-12-29T04:22:14;9.10;;;1.90;;
20283;SDS011;10301;50.832;4.080;2023-12-29T04:24:40;12.80;;;2.47;;
20283;SDS011;10301;50.832;4.080;2023-12-29T04:27:06;9.83;;;2.10;;
20283;SDS011;10301;50.832;4.080;2023-12-29T04:29:31;10.68;;;2.05;;
20283;SDS011;10301;50.832;4.080;2023-12-29T04:31:57;15.43;;;1.90;;
20283;SDS011;10301;50.832;4.080;2023-12-29T04:34:23;9.95;;;2.47;;
20283;SDS011;10301;50.832;4.080;2023-12-29T04:36:48;10.77;;;2.17;;
20283;SDS011;10301;50.832;4.080;2023-12-29T04:39:14;9.13;;;1.83;;
20283;SDS011;10301;50.832;4.080;2023-12-29T04:41:40;9.03;;;2.10;;
20283;SDS011;10301;50.832;4.080;2023-12-29T04:44:05;11.20;;;1.80;;
20283;SDS011;10301;50.832;4.080;2023-12-29T04:46:31;14.50;;;2.03;;
20283;SDS011;10301;50.832;4.080;2023-12-29T04:48:57;11.80;;;2.17;;
20283;SDS011;10301;50.832;4.080;2023-12-29T04:51:22;10.52;;;2.28;;
20283;SDS011;10301;50.832;4.080;2023-12-29T04:53:48;10.20;;;2.00;;
20283;SDS011;10301;50.832;4.080;2023-12-29T04:56:14;11.73;;;2.00;;
20283;SDS011;10301;50.832;4.080;2023-12-29T04:58:39;13.98;;;2.20;;
20283;SDS011;10301;50.832;4.080;2023-12-29T05:01:05;8.23;;;2.03;;
20283;SDS011;10301;50.832;4.080;2023-12-29T05:03:31;9.47;;;2.30;;
20283;SDS011;10301;50.832;4.080;2023-12-29T05:05:56;11.18;;;2.55;;
20283;SDS011;10301;50.832;4.080;2023-12-29T05:08:22;8.93;;;1.85;;
20283;SDS011;10301;50.832;4.080;2023-12-29T05:10:47;9.20;;;2.00;;
20283;SDS011;10301;50.832;4.080;2023-12-29T05:13:13;13.52;;;2.60;;
20283;SDS011;10301;50.832;4.080;2023-12-29T05:15:39;14.73;;;2.45;;
20283;SDS011;10301;50.832;4.080;2023-12-29T05:18:04;10.80;;;2.10;;
20283;SDS011;10301;50.832;4.080;2023-12-29T05:20:30;11.83;;;2.40;;
20283;SDS011;10301;50.832;4.080;2023-12-29T05:22:56;14.48;;;2.15;;
20283;SDS011;10301;50.832;4.080;2023-12-29T05:25:22;6.50;;;1.63;;
20283;SDS011;10301;50.832;4.080;2023-12-29T05:27:49;11.47;;;2.00;;
20283;SDS011;10301;50.832;4.080;2023-12-29T05:30:15;10.60;;;2.40;;
20283;SDS011;10301;50.832;4.080;2023-12-29T05:32:41;10.43;;;2.22;;
20283;SDS011;10301;50.832;4.080;2023-12-29T05:35:06;13.63;;;1.88;;
20283;SDS011;10301;50.832;4.080;2023-12-29T05:37:32;11.38;;;2.00;;
20283;SDS011;10301;50.832;4.080;2023-12-29T05:39:58;14.80;;;3.00;;
20283;SDS011;10301;50.832;4.080;2023-12-29T05:42:24;12.00;;;2.50;;
20283;SDS011;10301;50.832;4.080;2023-12-29T05:44:49;13.93;;;2.53;;
20283;SDS011;10301;50.832;4.080;2023-12-29T05:47:16;10.93;;;2.33;;
20283;SDS011;10301;50.832;4.080;2023-12-29T05:49:42;9.47;;;2.27;;
20283;SDS011;10301;50.832;4.080;2023-12-29T05:52:08;10.25;;;2.30;;
20283;SDS011;10301;50.832;4.080;2023-12-29T05:54:34;10.13;;;2.30;;
20283;SDS011;10301;50.832;4.080;2023-12-29T05:57:00;13.43;;;2.50;;
20283;SDS011;10301;50.832;4.080;2023-12-29T05:59:26;12.40;;;2.53;;
20283;SDS011;10301;50.832;4.080;2023-12-29T06:01:51;12.33;;;2.17;;
20283;SDS011;10301;50.832;4.080;2023-12-29T06:04:17;14.10;;;2.13;;
20283;SDS011;10301;50.832;4.080;2023-12-29T06:06:43;11.80;;;2.10;;
20283;SDS011;10301;50.832;4.080;2023-12-29T06:09:10;12.87;;;2.70;;
20283;SDS011;10301;50.832;4.080;2023-12-29T06:11:36;10.87;;;2.27;;
20283;SDS011;10301;50.832;4.080;2023-12-29T06:14:02;10.43;;;2.30;;
20283;SDS011;10301;50.832;4.080;2023-12-29T06:16:28;13.60;;;2.10;;
20283;SDS011;10301;50.832;4.080;2023-12-29T06:18:55;13.10;;;2.67;;
20283;SDS011;10301;50.832;4.080;2023-12-29T06:21:21;8.70;;;2.30;;
20283;SDS011;10301;50.832;4.080;2023-12-29T06:23:47;14.07;;;2.30;;
20283;SDS011;10301;50.832;4.080;2023-12-29T06:26:17;13.37;;;2.20;;
20283;SDS011;10301;50.832;4.080;2023-12-29T06:28:43;10.53;;;2.10;;
20283;SDS011;10301;50.832;4.080;2023-12-29T06:31:10;10.40;;;2.00;;
20283;SDS011;10301;50.832;4.080;2023-12-29T06:33:36;11.77;;;2.33;;
20283;SDS011;10301;50.832;4.080;2023-12-29T06:36:05;16.50;;;3.07;;
20283;SDS011;10301;50.832;4.080;2023-12-29T06:38:31;13.40;;;2.90;;
20283;SDS011;10301;50.832;4.080;2023-12-29T06:40:58;10.73;;;2.30;;
20283;SDS011;10301;50.832;4.080;2023-12-29T06:43:25;12.03;;;2.10;;
20283;SDS011;10301;50.832;4.080;2023-12-29T06:45:51;12.40;;;2.47;;
20283;SDS011;10301;50.832;4.080;2023-12-29T06:48:17;15.73;;;3.03;;
20283;SDS011;10301;50.832;4.080;2023-12-29T06:50:42;13.73;;;2.57;;
20283;SDS011;10301;50.832;4.080;2023-12-29T06:53:08;12.67;;;1.93;;
20283;SDS011;10301;50.832;4.080;2023-12-29T06:55:34;13.00;;;2.03;;
20283;SDS011;10301;50.832;4.080;2023-12-29T06:57:59;13.80;;;2.17;;
20283;SDS011;10301;50.832;4.080;2023-12-29T07:00:25;7.10;;;1.73;;
20283;SDS011;10301;50.832;4.080;2023-12-29T07:02:51;13.27;;;2.33;;
20283;SDS011;10301;50.832;4.080;2023-12-29T07:05:16;11.50;;;2.27;;
20283;SDS011;10301;50.832;4.080;2023-12-29T07:07:42;9.70;;;2.13;;
20283;SDS011;10301;50.832;4.080;2023-12-29T07:10:08;6.80;;;1.87;;
20283;SDS011;10301;50.832;4.080;2023-12-29T07:12:37;10.70;;;1.93;;
20283;SDS011;10301;50.832;4.080;2023-12-29T07:15:02;8.37;;;1.90;;
20283;SDS011;10301;50.832;4.080;2023-12-29T07:17:28;11.87;;;2.10;;
20283;SDS011;10301;50.832;4.080;2023-12-29T07:19:54;9.70;;;2.40;;
20283;SDS011;10301;50.832;4.080;2023-12-29T07:22:20;8.20;;;1.70;;
20283;SDS011;10301;50.832;4.080;2023-12-29T07:24:45;10.33;;;2.00;;
20283;SDS011;10301;50.832;4.080;2023-12-29T07:27:11;10.20;;;2.13;;
20283;SDS011;10301;50.832;4.080;2023-12-29T07:29:37;11.03;;;3.20;;
20283;SDS011;10301;50.832;4.080;2023-12-29T07:32:02;10.07;;;2.30;;
20283;SDS011;10301;50.832;4.080;2023-12-29T07:34:28;10.30;;;2.00;;
20283;SDS011;10301;50.832;4.080;2023-12-29T07:36:56;9.27;;;1.90;;
20283;SDS011;10301;50.832;4.080;2023-12-29T07:39:23;9.53;;;2.10;;
20283;SDS011;10301;50.832;4.080;2023-12-29T07:41:49;12.48;;;2.38;;
20283;SDS011;10301;50.832;4.080;2023-12-29T07:44:16;9.30;;;2.20;;
20283;SDS011;10301;50.832;4.080;2023-12-29T07:46:44;16.42;;;2.40;;
20283;SDS011;10301;50.832;4.080;2023-12-29T07:49:10;9.38;;;2.30;;
20283;SDS011;10301;50.832;4.080;2023-12-29T07:51:39;7.25;;;1.90;;
20283;SDS011;10301;50.832;4.080;2023-12-29T07:54:06;14.45;;;2.60;;
20283;SDS011;10301;50.832;4.080;2023-12-29T07:56:32;9.68;;;2.55;;
20283;SDS011;10301;50.832;4.080;2023-12-29T07:58:58;9.67;;;2.67;;
20283;SDS011;10301;50.832;4.080;2023-12-29T08:01:24;13.43;;;2.65;;
20283;SDS011;10301;50.832;4.080;2023-12-29T08:03:50;14.43;;;2.42;;
20283;SDS011;10301;50.832;4.080;2023-12-29T08:06:16;14.37;;;3.07;;
20283;SDS011;10301;50.832;4.080;2023-12-29T08:08:42;12.98;;;2.47;;
20283;SDS011;10301;50.832;4.080;2023-12-29T08:11:16;10.20;;;2.57;;
20283;SDS011;10301;50.832;4.080;2023-12-29T08:13:47;15.37;;;3.97;;
20283;SDS011;10301;50.832;4.080;2023-12-29T08:16:13;11.10;;;3.13;;
20283;SDS011;10301;50.832;4.080;2023-12-29T08:18:39;9.13;;;2.43;;
20283;SDS011;10301;50.832;4.080;2023-12-29T08:21:05;11.55;;;2.10;;
20283;SDS011;10301;50.832;4.080;2023-12-29T08:23:31;9.93;;;1.88;;
20283;SDS011;10301;50.832;4.080;2023-12-29T08:25:57;12.52;;;2.60;;
20283;SDS011;10301;50.832;4.080;2023-12-29T08:28:25;15.93;;;2.87;;
20283;SDS011;10301;50.832;4.080;2023-12-29T08:30:51;13.73;;;2.33;;
20283;SDS011;10301;50.832;4.080;2023-12-29T08:33:17;12.45;;;1.52;;
20283;SDS011;10301;50.832;4.080;2023-12-29T08:35:43;12.43;;;2.43;;
20283;SDS011;10301;50.832;4.080;2023-12-29T08:38:09;8.83;;;1.83;;
20283;SDS011;10301;50.832;4.080;2023-12-29T08:40:35;10.30;;;1.60;;
20283;SDS011;10301;50.832;4.080;2023-12-29T08:43:01;12.93;;;2.33;;
20283;SDS011;10301;50.832;4.080;2023-12-29T08:45:27;9.70;;;2.27;;
20283;SDS011;10301;50.832;4.080;2023-12-29T08:47:52;10.77;;;2.03;;
20283;SDS011;10301;50.832;4.080;2023-12-29T08:50:19;9.40;;;2.23;;
20283;SDS011;10301;50.832;4.080;2023-12-29T08:52:45;16.98;;;2.47;;
20283;SDS011;10301;50.832;4.080;2023-12-29T08:55:10;11.32;;;2.80;;
20283;SDS011;10301;50.832;4.080;2023-12-29T08:57:36;10.95;;;1.92;;
20283;SDS011;10301;50.832;4.080;2023-12-29T09:00:02;16.45;;;2.15;;
20283;SDS011;10301;50.832;4.080;2023-12-29T09:02:28;13.02;;;2.05;;
20283;SDS011;10301;50.832;4.080;2023-12-29T09:04:54;10.57;;;2.03;;
20283;SDS011;10301;50.832;4.080;2023-12-29T09:07:19;16.80;;;2.20;;
20283;SDS011;10301;50.832;4.080;2023-12-29T09:09:45;15.05;;;2.30;;
20283;SDS011;10301;50.832;4.080;2023-12-29T09:12:11;12.03;;;2.10;;
20283;SDS011;10301;50.832;4.080;2023-12-29T09:14:36;11.85;;;2.38;;
20283;SDS011;10301;50.832;4.080;2023-12-29T09:17:02;10.50;;;2.53;;
20283;SDS011;10301;50.832;4.080;2023-12-29T09:19:28;12.05;;;2.60;;
20283;SDS011;10301;50.832;4.080;2023-12-29T09:21:54;12.35;;;2.97;;
20283;SDS011;10301;50.832;4.080;2023-12-29T09:24:19;12.88;;;3.53;;
20283;SDS011;10301;50.832;4.080;2023-12-29T09:26:45;9.52;;;2.78;;
20283;SDS011;10301;50.832;4.080;2023-12-29T09:29:10;12.50;;;3.38;;
20283;SDS011;10301;50.832;4.080;2023-12-29T09:31:36;12.90;;;3.13;;
20283;SDS011;10301;50.832;4.080;2023-12-29T09:34:02;10.23;;;2.90;;
20283;SDS011;10301;50.832;4.080;2023-12-29T09:36:27;11.38;;;3.05;;
20283;SDS011;10301;50.832;4.080;2023-12-29T09:38:53;8.18;;;2.70;;
20283;SDS011;10301;50.832;4.080;2023-12-29T09:41:20;10.30;;;3.45;;
20283;SDS011;10301;50.832;4.080;2023-12-29T09:43:48;10.15;;;2.80;;
20283;SDS011;10301;50.832;4.080;2023-12-29T09:46:16;13.15;;;3.30;;
20283;SDS011;10301;50.832;4.080;2023-12-29T09:48:46;12.23;;;2.28;;
20283;SDS011;10301;50.832;4.080;2023-12-29T09:51:13;10.70;;;2.40;;
20283;SDS011;10301;50.832;4.080;2023-12-29T09:53:40;8.05;;;2.40;;
20283;SDS011;10301;50.832;4.080;2023-12-29T09:56:07;11.07;;;1.73;;
20283;SDS011;10301;50.832;4.080;2023-12-29T09:58:34;7.50;;;2.33;;
20283;SDS011;10301;50.832;4.080;2023-12-29T10:01:03;12.88;;;2.67;;
20283;SDS011;10301;50.832;4.080;2023-12-29T10:03:30;7.43;;;2.17;;
20283;SDS011;10301;50.832;4.080;2023-12-29T10:05:56;9.95;;;2.33;;
20283;SDS011;10301;50.832;4.080;2023-12-29T10:08:25;8.60;;;2.83;;
20283;SDS011;10301;50.832;4.080;2023-12-29T10:10:53;12.18;;;2.67;;
20283;SDS011;10301;50.832;4.080;2023-12-29T10:13:23;11.82;;;2.45;;
20283;SDS011;10301;50.832;4.080;2023-12-29T10:15:50;8.90;;;2.20;;
20283;SDS011;10301;50.832;4.080;2023-12-29T10:24:20;10.38;;;2.40;;
20283;SDS011;10301;50.832;4.080;2023-12-29T10:26:47;13.27;;;2.40;;
20283;SDS011;10301;50.832;4.080;2023-12-29T10:29:14;9.02;;;2.38;;
20283;SDS011;10301;50.832;4.080;2023-12-29T10:31:41;11.18;;;2.45;;
20283;SDS011;10301;50.832;4.080;2023-12-29T10:34:22;11.73;;;2.28;;
20283;SDS011;10301;50.832;4.080;2023-12-29T10:36:55;9.40;;;2.25;;
20283;SDS011;10301;50.832;4.080;2023-12-29T10:39:21;15.45;;;2.42;;
20283;SDS011;10301;50.832;4.080;2023-12-29T10:41:48;12.88;;;2.45;;
20283;SDS011;10301;50.832;4.080;2023-12-29T10:44:14;10.23;;;2.13;;
20283;SDS011;10301;50.832;4.080;2023-12-29T10:46:40;11.32;;;2.67;;
20283;SDS011;10301;50.832;4.080;2023-12-29T10:49:10;15.77;;;2.35;;
20283;SDS011;10301;50.832;4.080;2023-12-29T10:51:37;7.80;;;2.22;;
20283;SDS011;10301;50.832;4.080;2023-12-29T10:54:03;12.20;;;1.98;;
20283;SDS011;10301;50.832;4.080;2023-12-29T10:56:30;13.18;;;2.67;;
20283;SDS011;10301;50.832;4.080;2023-12-29T10:59:03;9.88;;;2.50;;
20283;SDS011;10301;50.832;4.080;2023-12-29T11:01:30;8.48;;;2.53;;
20283;SDS011;10301;50.832;4.080;2023-12-29T11:04:00;13.93;;;2.17;;
20283;SDS011;10301;50.832;4.080;2023-12-29T11:06:27;8.60;;;2.15;;
20283;SDS011;10301;50.832;4.080;2023-12-29T11:08:56;8.35;;;1.98;;
20283;SDS011;10301;50.832;4.080;2023-12-29T11:11:22;7.25;;;1.83;;
20283;SDS011;10301;50.832;4.080;2023-12-29T11:13:48;13.90;;;2.45;;
20283;SDS011;10301;50.832;4.080;2023-12-29T11:16:14;12.57;;;2.20;;
20283;SDS011;10301;50.832;4.080;2023-12-29T11:18:46;11.95;;;2.40;;
20283;SDS011;10301;50.832;4.080;2023-12-29T11:21:14;9.55;;;1.90;;
20283;SDS011;10301;50.832;4.080;2023-12-29T11:23:40;11.48;;;2.80;;
20283;SDS011;10301;50.832;4.080;2023-12-29T11:26:06;8.70;;;1.88;;
20283;SDS011;10301;50.832;4.080;2023-12-29T11:28:32;8.20;;;2.10;;
20283;SDS011;10301;50.832;4.080;2023-12-29T11:30:58;14.85;;;2.53;;
20283;SDS011;10301;50.832;4.080;2023-12-29T11:33:30;7.60;;;2.08;;
20283;SDS011;10301;50.832;4.080;2023-12-29T11:41:37;8.38;;;2.20;;
20283;SDS011;10301;50.832;4.080;2023-12-29T11:44:08;10.30;;;2.25;;
20283;SDS011;10301;50.832;4.080;2023-12-29T11:46:37;8.50;;;1.85;;
20283;SDS011;10301;50.832;4.080;2023-12-29T11:49:09;8.73;;;2.40;;
20283;SDS011;10301;50.832;4.080;2023-12-29T11:51:39;12.38;;;2.20;;
20283;SDS011;10301;50.832;4.080;2023-12-29T11:54:09;8.57;;;2.00;;
20283;SDS011;10301;50.832;4.080;2023-12-29T11:59:18;3.90;;;1.67;;
20283;SDS011;10301;50.832;4.080;2023-12-29T12:01:58;10.43;;;2.10;;
20283;SDS011;10301;50.832;4.080;2023-12-29T12:07:07;12.93;;;2.50;;
20283;SDS011;10301;50.832;4.080;2023-12-29T12:13:03;13.63;;;2.70;;
20283;SDS011;10301;50.832;4.080;2023-12-29T12:17:55;7.32;;;2.20;;
20283;SDS011;10301;50.832;4.080;2023-12-29T12:20:21;10.63;;;2.28;;
20283;SDS011;10301;50.832;4.080;2023-12-29T12:22:55;8.77;;;2.60;;
20283;SDS011;10301;50.832;4.080;2023-12-29T12:25:25;11.80;;;3.30;;
20283;SDS011;10301;50.832;4.080;2023-12-29T12:27:53;7.88;;;2.10;;
20283;SDS011;10301;50.832;4.080;2023-12-29T12:30:19;6.30;;;2.25;;
20283;SDS011;10301;50.832;4.080;2023-12-29T12:32:45;9.52;;;3.17;;
20283;SDS011;10301;50.832;4.080;2023-12-29T12:35:15;5.85;;;2.25;;
20283;SDS011;10301;50.832;4.080;2023-12-29T12:37:41;7.97;;;2.08;;
20283;SDS011;10301;50.832;4.080;2023-12-29T12:40:07;6.68;;;1.88;;
20283;SDS011;10301;50.832;4.080;2023-12-29T12:42:34;6.75;;;2.13;;
20283;SDS011;10301;50.832;4.080;2023-12-29T12:45:06;6.78;;;2.20;;
20283;SDS011;10301;50.832;4.080;2023-12-29T12:47:37;5.35;;;1.73;;
20283;SDS011;10301;50.832;4.080;2023-12-29T12:50:10;8.30;;;2.35;;
20283;SDS011;10301;50.832;4.080;2023-12-29T12:52:37;7.60;;;3.40;;
20283;SDS011;10301;50.832;4.080;2023-12-29T12:55:05;5.95;;;3.13;;
20283;SDS011;10301;50.832;4.080;2023-12-29T12:57:31;9.40;;;2.45;;
20283;SDS011;10301;50.832;4.080;2023-12-29T12:59:58;14.38;;;3.30;;
20283;SDS011;10301;50.832;4.080;2023-12-29T13:02:26;8.57;;;2.50;;
20283;SDS011;10301;50.832;4.080;2023-12-29T13:04:53;7.70;;;2.15;;
20283;SDS011;10301;50.832;4.080;2023-12-29T13:07:19;8.05;;;1.85;;
20283;SDS011;10301;50.832;4.080;2023-12-29T13:09:45;8.10;;;3.03;;
20283;SDS011;10301;50.832;4.080;2023-12-29T13:12:13;12.65;;;2.10;;
20283;SDS011;10301;50.832;4.080;2023-12-29T13:14:41;12.00;;;1.80;;
20283;SDS011;10301;50.832;4.080;2023-12-29T13:17:08;6.40;;;2.13;;
20283;SDS011;10301;50.832;4.080;2023-12-29T13:19:39;10.20;;;1.90;;
20283;SDS011;10301;50.832;4.080;2023-12-29T13:22:06;8.82;;;1.85;;
20283;SDS011;10301;50.832;4.080;2023-12-29T13:24:33;4.78;;;1.65;;
20283;SDS011;10301;50.832;4.080;2023-12-29T13:27:04;8.05;;;1.65;;
20283;SDS011;10301;50.832;4.080;2023-12-29T13:29:31;7.03;;;1.70;;
20283;SDS011;10301;50.832;4.080;2023-12-29T13:32:00;8.57;;;1.40;;
20283;SDS011;10301;50.832;4.080;2023-12-29T13:34:41;6.85;;;1.77;;
20283;SDS011;10301;50.832;4.080;2023-12-29T13:37:35;8.68;;;1.88;;
20283;SDS011;10301;50.832;4.080;2023-12-29T13:40:14;6.78;;;1.90;;
20283;SDS011;10301;50.832;4.080;2023-12-29T13:42:49;9.48;;;2.13;;
20283;SDS011;10301;50.832;4.080;2023-12-29T13:45:18;7.97;;;1.60;;
20283;SDS011;10301;50.832;4.080;2023-12-29T13:47:45;5.70;;;1.83;;
20283;SDS011;10301;50.832;4.080;2023-12-29T13:50:11;7.55;;;1.67;;
20283;SDS011;10301;50.832;4.080;2023-12-29T13:52:37;3.58;;;1.42;;
20283;SDS011;10301;50.832;4.080;2023-12-29T13:55:03;4.47;;;1.55;;
20283;SDS011;10301;50.832;4.080;2023-12-29T13:57:34;5.68;;;1.65;;
20283;SDS011;10301;50.832;4.080;2023-12-29T14:00:14;6.30;;;1.60;;
20283;SDS011;10301;50.832;4.080;2023-12-29T14:02:47;4.10;;;1.50;;
20283;SDS011;10301;50.832;4.080;2023-12-29T14:08:26;10.95;;;2.47;;
20283;SDS011;10301;50.832;4.080;2023-12-29T14:11:12;8.07;;;2.50;;
20283;SDS011;10301;50.832;4.080;2023-12-29T14:13:42;7.00;;;2.20;;
20283;SDS011;10301;50.832;4.080;2023-12-29T14:16:08;6.68;;;2.00;;
20283;SDS011;10301;50.832;4.080;2023-12-29T14:21:26;6.05;;;2.08;;
20283;SDS011;10301;50.832;4.080;2023-12-29T14:26:53;6.55;;;2.10;;
20283;SDS011;10301;50.832;4.080;2023-12-29T14:29:19;7.72;;;2.28;;
20283;SDS011;10301;50.832;4.080;2023-12-29T14:31:46;8.25;;;2.30;;
20283;SDS011;10301;50.832;4.080;2023-12-29T14:34:12;8.27;;;3.10;;
20283;SDS011;10301;50.832;4.080;2023-12-29T14:36:39;15.20;;;6.43;;
20283;SDS011;10301;50.832;4.080;2023-12-29T14:39:06;21.98;;;8.30;;
20283;SDS011;10301;50.832;4.080;2023-12-29T14:41:32;57.28;;;22.15;;
20283;SDS011;10301;50.832;4.080;2023-12-29T14:43:58;22.45;;;9.07;;
20283;SDS011;10301;50.832;4.080;2023-12-29T14:46:24;14.63;;;6.22;;
20283;SDS011;10301;50.832;4.080;2023-12-29T14:48:50;9.93;;;4.53;;
20283;SDS011;10301;50.832;4.080;2023-12-29T14:51:17;8.93;;;4.57;;
20283;SDS011;10301;50.832;4.080;2023-12-29T14:53:44;10.35;;;3.20;;
20283;SDS011;10301;50.832;4.080;2023-12-29T14:56:12;6.57;;;3.70;;
20283;SDS011;10301;50.832;4.080;2023-12-29T14:58:38;10.07;;;3.17;;
20283;SDS011;10301;50.832;4.080;2023-12-29T15:01:05;8.07;;;3.15;;
20283;SDS011;10301;50.832;4.080;2023-12-29T15:03:31;7.55;;;3.38;;
20283;SDS011;10301;50.832;4.080;2023-12-29T15:05:58;10.73;;;3.38;;
20283;SDS011;10301;50.832;4.080;2023-12-29T15:08:24;10.73;;;2.90;;